Time;durP1;ratioP1;P1;durP2;ratioP2;P2;SDS_P1;SDS_P2;PMS_P1;PMS_P2;Temp;Humidity;BMP_temperature;BMP_pressure;BME280_temperature;BME280_humidity;BME280_pressure;Samples;Min_cycle;Max_cycle;Signal;HPM_P1;HPM_P2
2021/08/15 00:00:13;;;;;;;6.03;5.43;;;;;;;22.87;69.44;101440.25;4940195;28;102160;-87
2021/08/15 00:02:40;;;;;;;;;;;;;;;22.87;69.34;101441.06;4934704;28;102846;-87
2021/08/15 00:05:09;;;;;;;6.38;5.40;;;;;;;22.87;69.36;101441.06;4938594;28;102084;-87
2021/08/15 00:07:38;;;;;;;8.18;5.72;;;;;;;22.88;69.33;101436.31;4939173;28;102183;-87
2021/08/15 00:10:06;;;;;;;7.40;5.43;;;;;;;22.87;69.21;101443.81;4936488;28;102202;-87
2021/08/15 00:12:34;;;;;;;7.13;5.88;;;;;;;22.87;69.08;101435.50;4934839;28;102672;-88
2021/08/15 00:15:00;;;;;;;6.82;5.60;;;;;;;22.87;69.25;101434.69;4937051;28;102004;-88
2021/08/15 00:17:27;;;;;;;7.43;5.95;;;;;;;22.87;69.32;101437.47;4931634;28;102191;-87
2021/08/15 00:19:54;;;;;;;6.05;5.18;;;;;;;22.86;69.39;101430.25;4938322;28;102185;-88
2021/08/15 00:22:21;;;;;;;7.93;5.70;;;;;;;22.86;69.02;101428.31;4940057;28;102768;-88
2021/08/15 00:24:49;;;;;;;8.30;5.85;;;;;;;22.86;69.36;101417.19;4936034;28;101939;-89
2021/08/15 00:27:15;;;;;;;6.40;5.43;;;;;;;22.86;69.36;101421.94;4945672;28;102119;-87
2021/08/15 00:29:42;;;;;;;8.02;5.70;;;;;;;22.86;69.15;101424.72;4946939;28;102107;-86
2021/08/15 00:32:09;;;;;;;7.32;5.22;;;;;;;22.86;69.24;101419.16;4945057;28;102734;-86
2021/08/15 00:34:36;;;;;;;7.95;5.43;;;;;;;22.86;69.18;101428.31;4945717;28;101820;-86
2021/08/15 00:37:05;;;;;;;6.85;5.43;;;;;;;22.86;69.26;101430.25;4945245;28;101825;-86
2021/08/15 00:39:33;;;;;;;;;;;;;;;22.86;69.46;101421.94;4947045;28;101799;-86
2021/08/15 00:42:01;;;;;;;6.65;5.75;;;;;;;22.86;69.32;101427.50;4945091;28;102698;-86
2021/08/15 00:44:27;;;;;;;7.40;5.23;;;;;;;22.86;69.26;101433.03;4944878;28;101941;-86
2021/08/15 00:46:55;;;;;;;6.70;5.57;;;;;;;22.86;69.30;101433.03;4945567;28;101669;-86
2021/08/15 00:49:22;;;;;;;6.80;5.35;;;;;;;22.86;69.36;101433.03;4946428;28;102046;-86
2021/08/15 00:51:48;;;;;;;6.60;5.60;;;;;;;22.85;69.24;101431.44;4944922;28;102735;-87
2021/08/15 00:54:15;;;;;;;6.20;5.20;;;;;;;22.86;69.26;101433.03;4940084;28;102149;-87
2021/08/15 00:56:43;;;;;;;6.97;5.45;;;;;;;22.85;69.24;101428.66;4945881;28;101627;-88
2021/08/15 00:59:15;;;;;;;10.03;5.73;;;;;;;22.84;69.43;101430.63;4945773;28;102153;-88
2021/08/15 01:01:43;;;;;;;7.25;5.97;;;;;;;22.85;69.35;101425.88;4936153;28;102719;-87
2021/08/15 01:04:10;;;;;;;7.38;5.60;;;;;;;22.84;69.35;101430.63;4937802;28;102060;-87
2021/08/15 01:06:38;;;;;;;7.25;5.38;;;;;;;22.84;69.35;101425.06;4945182;28;101837;-86
2021/08/15 01:09:04;;;;;;;7.23;5.87;;;;;;;22.84;69.21;101418.72;4945728;28;101977;-86
2021/08/15 01:11:34;;;;;;;6.07;5.47;;;;;;;22.84;69.31;101410.38;4944506;28;102802;-86
2021/08/15 01:14:06;;;;;;;6.00;5.35;;;;;;;22.84;69.01;101407.59;4942716;28;101955;-86
2021/08/15 01:16:36;;;;;;;6.60;5.90;;;;;;;22.84;69.35;101411.19;4944678;28;101763;-86
2021/08/15 01:19:05;;;;;;;6.38;5.55;;;;;;;22.83;69.23;101419.84;4943114;28;101655;-86
2021/08/15 01:21:31;;;;;;;6.97;5.80;;;;;;;22.83;69.18;101409.56;4944600;28;102825;-86
2021/08/15 01:23:58;;;;;;;6.22;5.35;;;;;;;22.84;69.31;101413.16;4945142;28;101687;-86
2021/08/15 01:26:24;;;;;;;6.15;5.50;;;;;;;22.84;69.47;101413.97;4944903;28;101932;-86
2021/08/15 01:28:53;;;;;;;6.65;5.25;;;;;;;22.84;69.27;101407.59;4945775;28;102068;-86
2021/08/15 01:31:22;;;;;;;5.78;5.18;;;;;;;22.83;69.46;101405.97;4944504;28;102452;-86
2021/08/15 01:33:49;;;;;;;8.02;6.32;;;;;;;22.83;69.21;101405.97;4944920;28;102015;-86
2021/08/15 01:36:19;;;;;;;8.13;5.93;;;;;;;22.84;69.31;101407.59;4939653;28;101815;-86
2021/08/15 01:38:47;;;;;;;6.93;5.43;;;;;;;22.83;69.14;101401.25;4926181;28;102049;-86
2021/08/15 01:41:14;;;;;;;7.82;6.05;;;;;;;22.84;69.24;101404.84;4924852;28;102524;-86
2021/08/15 01:43:49;;;;;;;5.38;4.88;;;;;;;22.84;69.29;101396.50;4925272;28;101811;-86
2021/08/15 01:46:19;;;;;;;7.35;5.80;;;;;;;22.84;69.42;101399.28;4929882;28;101929;-86
2021/08/15 01:48:46;;;;;;;6.47;5.78;;;;;;;22.83;69.26;101401.25;4945575;28;102108;-86
2021/08/15 01:51:14;;;;;;;8.43;6.18;;;;;;;22.83;69.16;101405.97;4943092;28;102643;-86
2021/08/15 01:53:41;;;;;;;7.00;6.30;;;;;;;22.83;69.28;101394.84;4944231;28;102001;-86
2021/08/15 01:56:07;;;;;;;7.90;6.07;;;;;;;22.83;69.39;101394.84;4943780;28;101908;-86
2021/08/15 01:58:34;;;;;;;6.93;6.07;;;;;;;22.82;69.44;101398.78;4957502;28;102068;-86
2021/08/15 02:01:01;;;;;;;7.20;5.70;;;;;;;22.82;69.23;101405.16;4924732;28;102732;-86
2021/08/15 02:03:29;;;;;;;9.32;5.95;;;;;;;22.82;69.24;101401.56;4948726;28;101750;-86
2021/08/15 02:05:56;;;;;;;7.20;6.17;;;;;;;22.83;69.11;101400.41;4959221;28;101901;-86
2021/08/15 02:08:23;;;;;;;6.28;5.55;;;;;;;22.82;69.27;101405.16;4960978;28;102070;-88
2021/08/15 02:10:50;;;;;;;7.90;6.22;;;;;;;22.82;69.12;101394.06;4928788;28;102756;-87
2021/08/15 02:13:17;;;;;;;6.10;5.50;;;;;;;22.83;69.11;101400.41;4925348;28;101969;-87
2021/08/15 02:15:47;;;;;;;7.63;5.63;;;;;;;22.82;68.99;101405.16;4925443;28;101824;-86
2021/08/15 02:18:28;;;;;;;9.97;5.63;;;;;;;22.81;69.35;101409.09;4923187;28;101757;-86
2021/08/15 02:20:56;;;;;;;7.43;6.22;;;;;;;22.81;69.15;101402.72;4935583;28;102747;-87
2021/08/15 02:23:22;;;;;;;6.50;5.33;;;;;;;22.81;69.42;101397.19;4939590;28;102280;-90
2021/08/15 02:25:49;;;;;;;6.93;6.05;;;;;;;22.81;69.40;101399.94;4937582;28;102185;-90
2021/08/15 02:28:16;;;;;;;7.30;5.88;;;;;;;22.80;69.20;101390.81;4933609;28;102232;-90
2021/08/15 02:30:42;;;;;;;7.65;6.00;;;;;;;22.81;69.40;101397.19;4935612;28;102836;-90
2021/08/15 02:33:09;;;;;;;6.35;5.72;;;;;;;22.81;69.47;101397.19;4950265;28;102135;-90
2021/08/15 02:35:36;;;;;;;6.93;6.22;;;;;;;22.79;69.13;101395.56;4934769;28;102064;-90
2021/08/15 02:38:04;;;;;;;7.82;5.88;;;;;;;22.81;69.33;101397.19;4952840;28;102143;-90
2021/08/15 02:40:30;;;;;;;8.07;6.33;;;;;;;22.81;69.26;101395.22;4937988;28;102749;-87
2021/08/15 02:42:58;;;;;;;8.32;6.50;;;;;;;22.79;69.43;101387.25;4940071;28;102047;-87
2021/08/15 02:45:26;;;;;;;6.60;5.63;;;;;;;22.81;69.23;101405.50;4939246;28;102382;-87
2021/08/15 02:47:53;;;;;;;7.73;6.40;;;;;;;22.79;69.18;101390.00;4940236;28;102200;-87
2021/08/15 02:50:20;;;;;;;7.88;6.25;;;;;;;22.81;69.47;101397.19;4927331;28;102810;-87
2021/08/15 02:52:48;;;;;;;6.60;5.53;;;;;;;22.81;69.18;101397.19;4938559;28;102030;-87
2021/08/15 02:55:17;;;;;;;7.70;5.75;;;;;;;22.79;69.33;101392.78;4939245;28;102141;-87
2021/08/15 02:57:44;;;;;;;8.02;6.20;;;;;;;22.79;69.29;101395.56;4932410;28;102238;-87
2021/08/15 03:00:13;;;;;;;7.65;5.97;;;;;;;22.79;69.17;101390.00;4934283;28;102740;-87
2021/08/15 03:02:41;;;;;;;8.32;6.40;;;;;;;22.79;68.95;101401.13;4941634;28;102005;-87
2021/08/15 03:05:10;;;;;;;7.95;6.57;;;;;;;22.79;69.26;101406.66;4935464;28;102181;-87
2021/08/15 03:07:37;;;;;;;;;;;;;;;22.79;69.13;101408.59;4939646;28;102318;-87
2021/08/15 03:10:04;;;;;;;7.85;6.70;;;;;;;22.79;69.07;101400.28;4941363;28;102657;-88
2021/08/15 03:12:32;;;;;;;8.67;6.67;;;;;;;22.77;69.29;101395.06;4941446;28;102117;-88
2021/08/15 03:14:59;;;;;;;7.93;5.80;;;;;;;22.78;69.23;101405.00;4934009;28;102118;-88
2021/08/15 03:17:26;;;;;;;7.10;6.35;;;;;;;22.78;69.34;101416.13;4939982;28;102188;-87
2021/08/15 03:19:54;;;;;;;7.63;6.82;;;;;;;22.79;69.27;101411.38;4934697;28;102754;-88
2021/08/15 03:22:21;;;;;;;8.38;7.00;;;;;;;22.79;69.41;101411.38;4930845;28;102187;-88
2021/08/15 03:24:47;;;;;;;7.82;6.93;;;;;;;22.77;69.49;101414.50;4936082;28;102206;-88
2021/08/15 03:27:15;;;;;;;9.18;7.10;;;;;;;22.77;69.40;101420.06;4941648;28;102125;-88
2021/08/15 03:29:43;;;;;;;8.52;6.70;;;;;;;22.77;69.13;101411.72;4934717;28;102755;-88
2021/08/15 03:32:10;;;;;;;8.47;6.93;;;;;;;22.77;69.26;101411.72;4941795;28;102026;-88
2021/08/15 03:34:36;;;;;;;7.07;6.38;;;;;;;22.77;69.47;101403.41;4939810;28;102090;-87
2021/08/15 03:37:03;;;;;;;9.27;6.57;;;;;;;22.78;69.24;101410.56;4932086;28;102265;-88
2021/08/15 03:39:30;;;;;;;10.63;7.25;;;;;;;22.78;69.24;101412.53;4940041;28;102832;-88
2021/08/15 03:41:58;;;;;;;8.68;6.57;;;;;;;22.78;69.55;101416.13;4932498;28;102120;-87
2021/08/15 03:44:29;;;;;;;9.90;7.50;;;;;;;22.77;69.30;101413.69;4931870;28;102158;-87
2021/08/15 03:46:58;;;;;;;8.10;7.13;;;;;;;22.77;69.42;101414.50;4941324;28;102066;-88
2021/08/15 03:49:27;;;;;;;9.50;7.50;;;;;;;22.78;69.42;101420.84;4935712;28;102816;-88
2021/08/15 03:51:54;;;;;;;;;;;;;;;22.77;69.24;101414.50;4935240;28;102148;-88
2021/08/15 03:54:20;;;;;;;7.78;6.97;;;;;;;22.77;69.48;101420.06;4935676;28;102120;-88
2021/08/15 03:56:47;;;;;;;9.73;7.43;;;;;;;22.78;69.29;101421.66;4941535;28;102248;-88
2021/08/15 03:59:14;;;;;;;8.57;7.47;;;;;;;22.78;69.38;101421.66;4955506;28;102763;-90
2021/08/15 04:01:42;;;;;;;9.98;7.88;;;;;;;22.78;69.62;101420.84;4935823;28;102219;-89
2021/08/15 04:04:10;;;;;;;9.50;7.53;;;;;;;22.78;69.50;101413.34;4943617;28;101990;-89
2021/08/15 04:06:37;;;;;;;8.95;7.72;;;;;;;22.78;69.49;101426.41;4946338;28;102082;-89
2021/08/15 04:09:04;;;;;;;9.57;8.38;;;;;;;22.78;69.38;101418.88;4945725;28;102375;-87
2021/08/15 04:11:31;;;;;;;9.10;7.30;;;;;;;22.78;69.44;101418.88;4946498;28;101963;-87
2021/08/15 04:13:58;;;;;;;9.23;7.60;;;;;;;22.77;69.66;101408.94;4940427;28;101851;-87
2021/08/15 04:16:24;;;;;;;9.48;7.13;;;;;;;22.78;69.54;101418.09;4962140;28;102153;-87
2021/08/15 04:18:54;;;;;;;8.18;7.10;;;;;;;22.79;69.46;101422.47;4960938;28;102763;-87
2021/08/15 04:21:23;;;;;;;;;;;;;;;22.78;69.42;101421.66;4965273;28;101939;-87
2021/08/15 04:23:50;;;;;;;7.72;6.72;;;;;;;22.79;69.47;101417.75;4964832;28;101907;-87
2021/08/15 04:26:17;;;;;;;7.78;6.63;;;;;;;22.78;69.66;101421.66;4955152;28;101923;-87
2021/08/15 04:28:44;;;;;;;7.22;6.07;;;;;;;22.78;69.68;101416.13;4943927;28;102611;-87
2021/08/15 04:31:11;;;;;;;8.73;6.18;;;;;;;22.81;69.62;101424.94;4931257;28;102102;-88
2021/08/15 04:33:39;;;;;;;8.93;7.03;;;;;;;22.80;69.82;101415.78;4939121;28;102194;-88
2021/08/15 04:36:05;;;;;;;7.43;6.50;;;;;;;22.81;69.85;101424.94;4941280;28;102097;-88
2021/08/15 04:38:33;;;;;;;7.78;6.97;;;;;;;22.81;69.82;101424.94;4931641;28;102712;-88
2021/08/15 04:41:00;;;;;;;7.78;6.50;;;;;;;22.79;69.93;101423.31;4929558;28;102242;-88
2021/08/15 04:43:27;;;;;;;7.57;6.25;;;;;;;22.81;69.90;101424.94;4931866;28;102100;-88
2021/08/15 04:45:53;;;;;;;8.15;6.45;;;;;;;22.81;70.17;101420.19;4936671;28;102172;-88
2021/08/15 04:48:20;;;;;;;6.88;6.13;;;;;;;22.83;69.99;101419.84;4955945;28;102821;-88
2021/08/15 04:50:46;;;;;;;8.30;6.20;;;;;;;22.82;69.83;101418.22;4931193;28;102032;-88
2021/08/15 04:53:13;;;;;;;6.97;5.82;;;;;;;22.82;70.35;101429.31;4941673;28;102087;-88
2021/08/15 04:55:41;;;;;;;6.57;5.93;;;;;;;22.82;70.31;101427.34;4941851;28;102158;-88
2021/08/15 04:58:08;;;;;;;6.40;5.80;;;;;;;22.83;70.17;101422.63;4936948;28;102708;-88
2021/08/15 05:00:34;;;;;;;6.65;5.85;;;;;;;22.82;70.26;101424.56;4938294;28;102109;-88
2021/08/15 05:03:01;;;;;;;6.85;6.15;;;;;;;22.83;70.33;101423.44;4931429;28;102133;-88
2021/08/15 05:05:28;;;;;;;6.65;5.95;;;;;;;22.83;70.31;101423.44;4935769;28;102308;-87
2021/08/15 05:07:54;;;;;;;6.30;5.70;;;;;;;22.83;70.25;101422.63;4932186;28;102714;-87
2021/08/15 05:10:21;;;;;;;6.80;5.90;;;;;;;22.84;70.30;101421.47;4931570;28;102238;-88
2021/08/15 05:12:49;;;;;;;6.90;6.20;;;;;;;22.85;70.31;101428.66;4938694;28;102077;-88
2021/08/15 05:15:16;;;;;;;7.43;6.10;;;;;;;22.84;70.34;101424.25;4940706;28;102181;-88
2021/08/15 05:17:42;;;;;;;7.75;5.57;;;;;;;22.85;70.36;101420.31;4939887;28;102235;-88
2021/08/15 05:20:10;;;;;;;6.95;5.88;;;;;;;22.86;70.41;101424.72;4942386;28;102046;-87
2021/08/15 05:22:37;;;;;;;8.07;6.05;;;;;;;22.86;70.40;101427.50;4940377;28;102157;-87
2021/08/15 05:25:06;;;;;;;7.33;6.63;;;;;;;22.86;70.59;101424.72;4940640;28;102052;-88
2021/08/15 05:27:32;;;;;;;6.68;5.57;;;;;;;22.87;70.44;101423.59;4938350;28;102915;-88
2021/08/15 05:30:01;;;;;;;6.57;5.90;;;;;;;22.87;70.44;101429.13;4940925;28;102174;-87
2021/08/15 05:32:28;;;;;;;7.15;6.35;;;;;;;22.87;70.58;101427.16;4934063;28;102142;-87
2021/08/15 05:34:55;;;;;;;7.05;5.88;;;;;;;22.87;70.59;101429.13;4939203;28;102306;-88
2021/08/15 05:37:21;;;;;;;7.40;6.60;;;;;;;22.88;70.43;101426.00;4939617;28;102907;-88
2021/08/15 05:39:48;;;;;;;7.65;6.78;;;;;;;22.89;70.52;101426.81;4939009;28;101989;-87
2021/08/15 05:42:16;;;;;;;7.10;6.22;;;;;;;22.88;70.35;101431.56;4941047;28;101890;-87
2021/08/15 05:44:43;;;;;;;6.90;6.20;;;;;;;22.91;70.29;101425.34;4940300;28;102255;-88
2021/08/15 05:47:11;;;;;;;6.80;5.70;;;;;;;22.91;70.39;101430.09;4936260;28;102454;-88
2021/08/15 05:49:38;;;;;;;9.30;6.07;;;;;;;22.92;70.37;101432.53;4934298;28;102084;-88
2021/08/15 05:52:05;;;;;;;6.90;6.13;;;;;;;22.93;70.44;101433.34;4934230;28;102146;-88
2021/08/15 05:54:32;;;;;;;6.85;6.03;;;;;;;22.94;70.50;101437.78;4937636;28;102217;-88
2021/08/15 05:57:03;;;;;;;7.80;6.13;;;;;;;22.95;70.49;101436.63;4920027;28;103233;-88
2021/08/15 05:59:30;;;;;;;8.95;6.20;;;;;;;22.95;70.48;101440.19;4946882;28;101929;-88
2021/08/15 06:01:57;;;;;;;6.85;6.15;;;;;;;22.96;70.41;101427.13;4933419;28;102818;-88
2021/08/15 06:04:25;;;;;;;7.90;6.30;;;;;;;22.97;70.22;101428.75;4934869;28;102101;-87
2021/08/15 06:06:52;;;;;;;7.70;6.35;;;;;;;22.98;70.37;101430.38;4950949;28;102757;-88
2021/08/15 06:09:20;;;;;;;6.87;5.63;;;;;;;22.99;70.18;101426.47;4942065;28;102074;-88
2021/08/15 06:11:47;;;;;;;6.55;5.88;;;;;;;22.99;70.18;101426.47;4926982;28;102202;-88
2021/08/15 06:14:14;;;;;;;7.22;6.22;;;;;;;23.01;70.33;101429.72;4945457;28;102164;-88
2021/08/15 06:16:41;;;;;;;8.25;6.05;;;;;;;23.02;70.27;101425.78;4945848;28;102700;-88
2021/08/15 06:19:09;;;;;;;6.32;5.70;;;;;;;23.02;70.12;101429.38;4941958;28;101897;-88
2021/08/15 06:21:41;;;;;;;6.38;5.72;;;;;;;23.03;70.23;101427.41;4951400;28;102165;-88
2021/08/15 06:24:08;;;;;;;8.10;5.97;;;;;;;23.04;70.08;101423.47;4944700;28;102121;-88
2021/08/15 06:26:34;;;;;;;7.10;5.78;;;;;;;23.06;70.32;101418.41;4941335;28;102737;-88
2021/08/15 06:29:01;;;;;;;7.30;5.82;;;;;;;23.06;70.08;101420.38;4937585;28;102215;-88
2021/08/15 06:31:28;;;;;;;6.63;5.43;;;;;;;23.07;70.14;101422.78;4940810;28;102020;-88
2021/08/15 06:33:54;;;;;;;6.82;6.13;;;;;;;23.08;70.09;101412.50;4955939;28;102130;-88
2021/08/15 06:36:21;;;;;;;5.93;5.32;;;;;;;23.08;70.00;101409.72;4938580;28;102664;-88
2021/08/15 06:38:50;;;;;;;6.38;5.65;;;;;;;23.08;69.92;101418.88;4938875;28;102077;-88
2021/08/15 06:41:16;;;;;;;6.23;5.63;;;;;;;23.11;69.89;101417.38;4935874;28;101950;-87
2021/08/15 06:43:43;;;;;;;6.82;5.75;;;;;;;23.11;69.83;101411.81;4945023;28;102354;-88
2021/08/15 06:46:10;;;;;;;6.70;5.80;;;;;;;23.11;70.02;101415.41;4959485;28;102760;-88
2021/08/15 06:48:37;;;;;;;7.93;5.90;;;;;;;23.12;70.03;101408.72;4939778;28;102081;-88
2021/08/15 06:51:03;;;;;;;6.65;5.93;;;;;;;23.13;69.87;101413.13;4934312;28;102181;-88
2021/08/15 06:53:35;;;;;;;6.25;5.65;;;;;;;23.12;70.22;101408.72;4945107;28;102047;-89
2021/08/15 06:56:05;;;;;;;6.70;5.55;;;;;;;23.14;69.94;101411.94;4945121;28;102835;-89
2021/08/15 06:58:32;;;;;;;5.68;5.13;;;;;;;23.16;70.00;101415.22;4945424;28;101876;-89
2021/08/15 07:00:59;;;;;;;7.97;5.28;;;;;;;23.16;70.11;101409.66;4943121;28;102190;-89
2021/08/15 07:03:26;;;;;;;6.10;5.18;;;;;;;23.16;69.71;101409.66;4947574;28;101840;-88
2021/08/15 07:05:53;;;;;;;5.55;5.05;;;;;;;23.17;69.81;101408.50;4947757;28;102802;-88
2021/08/15 07:08:20;;;;;;;5.97;5.15;;;;;;;23.18;69.82;101410.13;4947211;28;102131;-88
2021/08/15 07:10:49;;;;;;;7.25;4.97;;;;;;;23.19;69.92;101408.19;4946107;28;102140;-88
2021/08/15 07:13:22;;;;;;;5.45;4.93;;;;;;;23.20;69.83;101407.81;4949726;28;102095;-88
2021/08/15 07:15:53;;;;;;;5.53;4.80;;;;;;;23.20;69.74;101410.59;4945960;28;102714;-88
2021/08/15 07:18:21;;;;;;;6.57;5.32;;;;;;;23.21;69.75;101412.22;4935626;28;101992;-89
2021/08/15 07:20:49;;;;;;;6.35;5.13;;;;;;;23.22;70.00;101419.41;4943993;28;102040;-89
2021/08/15 07:23:15;;;;;;;6.57;5.43;;;;;;;23.23;69.73;101409.91;4946431;28;102111;-88
2021/08/15 07:25:42;;;;;;;5.93;4.97;;;;;;;23.23;69.55;101412.69;4944732;28;102801;-88
2021/08/15 07:28:09;;;;;;;6.05;5.45;;;;;;;23.25;69.72;101412.34;4944696;28;101974;-89
2021/08/15 07:30:38;;;;;;;13.82;5.93;;;;;;;23.25;69.44;101407.59;4942144;28;102243;-88
2021/08/15 07:33:05;;;;;;;8.63;4.75;;;;;;;23.26;69.44;101408.41;4947031;28;102226;-88
2021/08/15 07:35:38;;;;;;;8.55;5.43;;;;;;;23.27;69.55;101405.31;4961663;28;102406;-88
2021/08/15 07:38:05;;;;;;;5.88;4.80;;;;;;;23.27;69.47;101405.31;4944148;28;101983;-88
2021/08/15 07:40:32;;;;;;;5.75;5.15;;;;;;;23.27;69.43;101404.50;4936207;28;101807;-88
2021/08/15 07:42:59;;;;;;;6.13;5.00;;;;;;;23.29;69.29;101404.97;4944482;28;102046;-89
2021/08/15 07:45:31;;;;;;;6.40;5.43;;;;;;;23.30;69.22;101400.22;4951006;28;102735;-88
2021/08/15 07:48:00;;;;;;;8.63;5.43;;;;;;;23.30;69.39;101397.44;4942799;28;101945;-88
2021/08/15 07:50:29;;;;;;;5.43;4.72;;;;;;;23.30;69.24;101403.81;4941024;28;101982;-88
2021/08/15 07:52:55;;;;;;;6.05;5.45;;;;;;;23.31;69.04;101397.09;4960512;28;102408;-87
2021/08/15 07:55:23;;;;;;;10.10;4.93;;;;;;;23.31;67.49;101388.78;4940947;28;102185;-88
2021/08/15 07:57:49;;;;;;;8.02;5.03;;;;;;;23.27;65.78;101388.66;4953294;28;101996;-88
2021/08/15 08:00:16;;;;;;;7.35;4.88;;;;;;;23.24;65.04;101382.97;4937788;28;102017;-87
2021/08/15 08:02:43;;;;;;;8.25;5.65;;;;;;;23.22;64.29;101382.47;4940017;28;102061;-90
2021/08/15 08:05:11;;;;;;;12.10;4.88;;;;;;;23.20;63.29;101388.38;4940605;28;102676;-91
2021/08/15 08:07:39;;;;;;;27.38;6.28;;;;;;;23.21;64.58;101384.44;4935903;28;102125;-92
2021/08/15 08:10:07;;;;;;;8.37;4.93;;;;;;;23.24;65.78;101382.97;4936192;28;102085;-92
2021/08/15 08:12:33;;;;;;;11.82;5.38;;;;;;;23.24;66.02;101383.78;4944057;28;102129;-87
2021/08/15 08:15:00;;;;;;;8.52;5.20;;;;;;;23.25;66.09;101379.84;4930678;28;102754;-87
2021/08/15 08:17:26;;;;;;;7.75;5.43;;;;;;;23.26;66.14;101381.47;4934813;28;102084;-88
2021/08/15 08:19:53;;;;;;;8.90;5.50;;;;;;;23.27;66.57;101371.97;4943505;28;102156;-87
2021/08/15 08:22:22;;;;;;;8.82;6.05;;;;;;;23.29;66.62;101368.03;4942305;28;102012;-88
2021/08/15 08:24:48;;;;;;;6.20;5.63;;;;;;;23.30;66.52;101369.66;4933014;28;102806;-87
2021/08/15 08:27:17;;;;;;;6.38;5.63;;;;;;;23.30;66.66;101370.50;4934679;28;101902;-87
2021/08/15 08:29:45;;;;;;;9.20;5.43;;;;;;;23.32;66.54;101364.59;4940568;28;102019;-88
2021/08/15 08:32:12;;;;;;;6.47;5.40;;;;;;;23.33;66.79;101368.97;4959427;28;102065;-88
2021/08/15 08:34:39;;;;;;;7.88;5.65;;;;;;;23.33;66.69;101363.44;4939705;28;102813;-88
2021/08/15 08:37:07;;;;;;;;;;;;;;;23.34;66.89;101356.75;4943867;28;102144;-87
2021/08/15 08:39:36;;;;;;;7.55;5.47;;;;;;;23.34;67.05;101356.75;4957110;28;102229;-88
2021/08/15 08:42:05;;;;;;;8.70;5.03;;;;;;;23.35;66.92;101361.13;4944784;28;102295;-88
2021/08/15 08:44:34;;;;;;;8.02;5.55;;;;;;;23.34;67.03;101360.31;4939957;28;103907;-88
2021/08/15 08:47:02;;;;;;;7.67;5.70;;;;;;;23.36;66.87;101351.63;4943321;28;101939;-87
2021/08/15 08:49:39;;;;;;;5.63;5.10;;;;;;;23.36;67.01;101354.41;4955960;28;101893;-88
2021/08/15 08:52:06;;;;;;;6.28;5.75;;;;;;;23.37;67.21;101354.09;4964086;28;102089;-88
2021/08/15 08:54:35;;;;;;;7.38;5.07;;;;;;;23.38;67.05;101357.69;4940615;28;102788;-88
2021/08/15 08:57:02;;;;;;;6.63;5.90;;;;;;;23.38;67.29;101354.91;4944549;28;102180;-88
2021/08/15 08:59:29;;;;;;;6.50;5.68;;;;;;;23.39;67.04;101356.50;4928355;28;102046;-88
2021/08/15 09:01:56;;;;;;;7.82;5.45;;;;;;;23.39;66.99;101348.97;4945152;28;102143;-88
2021/08/15 09:04:23;;;;;;;5.95;4.95;;;;;;;23.40;67.00;101347.00;4949246;28;102809;-88
2021/08/15 09:06:52;;;;;;;6.10;5.28;;;;;;;23.41;67.31;101348.66;4939704;28;102176;-88
2021/08/15 09:09:20;;;;;;;5.00;4.50;;;;;;;23.41;66.89;101337.53;4937251;28;102021;-88
2021/08/15 09:11:59;;;;;;;6.82;5.32;;;;;;;23.41;67.16;101337.53;4936414;28;102242;-88
2021/08/15 09:14:26;;;;;;;8.40;5.70;;;;;;;23.41;66.95;101332.00;4940127;28;102800;-88
2021/08/15 09:16:59;;;;;;;5.70;5.10;;;;;;;23.42;66.95;101325.28;4945091;28;102106;-88
2021/08/15 09:19:31;;;;;;;6.50;5.53;;;;;;;23.43;66.84;101335.22;4946882;28;102187;-88
2021/08/15 09:22:21;;;;;;;5.50;5.00;;;;;;;23.42;66.88;101333.59;4943639;28;102083;-88
2021/08/15 09:24:51;;;;;;;5.43;4.93;;;;;;;23.43;67.22;101324.09;4927786;28;102732;-88
2021/08/15 09:27:22;;;;;;;7.28;5.35;;;;;;;23.42;67.03;101331.63;4941468;28;102128;-88
2021/08/15 09:30:09;;;;;;;6.68;5.68;;;;;;;23.42;66.88;101316.94;4947796;28;102218;-87
2021/08/15 09:32:43;;;;;;;7.03;5.57;;;;;;;23.42;67.03;101316.94;4940931;28;102078;-88
2021/08/15 09:35:17;;;;;;;5.45;4.82;;;;;;;23.43;67.18;101318.56;4923775;28;102474;-88
2021/08/15 09:37:43;;;;;;;6.47;5.30;;;;;;;23.42;67.28;101311.38;4937491;28;101958;-88
2021/08/15 09:40:28;;;;;;;5.53;4.97;;;;;;;23.43;67.21;101308.25;4942012;28;102079;-88
2021/08/15 09:42:57;;;;;;;5.65;4.93;;;;;;;23.43;67.11;101313.81;4933842;28;102059;-88
2021/08/15 09:45:40;;;;;;;5.53;5.00;;;;;;;23.43;67.25;101310.22;4939811;28;102871;-88
2021/08/15 09:48:34;;;;;;;6.10;5.60;;;;;;;23.43;67.20;101308.25;4935973;28;102098;-88
2021/08/15 09:51:04;;;;;;;5.97;5.38;;;;;;;23.44;66.98;101309.06;4932740;28;101890;-88
2021/08/15 09:53:31;;;;;;;6.93;5.00;;;;;;;23.44;67.09;101303.50;4946258;28;102232;-88
2021/08/15 09:55:58;;;;;;;5.25;4.75;;;;;;;23.44;66.91;101297.94;4941570;28;102745;-88
2021/08/15 09:58:26;;;;;;;6.22;5.30;;;;;;;23.44;67.12;101293.22;4942589;28;101947;-92
2021/08/15 10:00:54;;;;;;;5.10;4.50;;;;;;;23.43;67.22;101290.78;4933963;28;102149;-91
2021/08/15 10:03:22;;;;;;;6.03;5.10;;;;;;;23.43;67.03;101291.59;4939845;28;102064;-92
2021/08/15 10:05:49;;;;;;;5.10;4.65;;;;;;;23.44;67.24;101297.94;4939701;28;103898;-92
2021/08/15 10:08:15;;;;;;;5.55;5.05;;;;;;;23.44;67.26;101292.38;4939846;28;102062;-92
2021/08/15 10:10:44;;;;;;;6.72;5.70;;;;;;;23.43;66.88;101290.78;4942479;28;102013;-91
2021/08/15 10:13:17;;;;;;;6.07;5.50;;;;;;;23.42;66.92;101292.75;4930783;28;102110;-92
2021/08/15 10:15:55;;;;;;;5.93;5.40;;;;;;;23.43;66.99;101288.81;4933095;28;102676;-92
2021/08/15 10:18:27;;;;;;;6.00;5.50;;;;;;;23.43;67.13;101288.00;4940568;28;102256;-92
2021/08/15 10:21:05;;;;;;;7.38;5.53;;;;;;;23.43;67.27;101285.22;4954371;28;102052;-92
2021/08/15 10:23:37;;;;;;;6.18;5.65;;;;;;;23.43;67.17;101288.00;4942757;28;102000;-91
2021/08/15 10:26:32;;;;;;;6.25;5.65;;;;;;;23.41;67.18;101268.09;4936512;28;102672;-91
2021/08/15 10:28:58;;;;;;;6.57;5.97;;;;;;;23.42;67.24;101264.16;4935745;28;102174;-91
2021/08/15 10:32:06;;;;;;;5.88;5.38;;;;;;;23.41;67.40;101265.34;4933293;28;102138;-92
2021/08/15 10:35:08;;;;;;;6.10;5.50;;;;;;;23.40;67.25;101267.28;4922024;28;102612;-92
2021/08/15 10:37:36;;;;;;;6.25;5.63;;;;;;;23.42;67.46;101264.16;4937556;28;102806;-93
2021/08/15 10:40:03;;;;;;;;;;;;;;;23.41;67.30;101266.13;4936246;28;102143;-92
2021/08/15 10:42:43;;;;;;;5.93;5.32;;;;;;;23.41;67.35;101254.22;4941258;28;102270;-92
2021/08/15 10:45:13;;;;;;;6.28;5.68;;;;;;;23.41;67.54;101259.78;4938246;28;102132;-91
2021/08/15 10:47:40;;;;;;;6.53;5.40;;;;;;;23.41;67.55;101257.00;4940170;28;102799;-92
2021/08/15 10:50:08;;;;;;;5.75;5.25;;;;;;;23.41;67.43;101257.00;4932471;28;102020;-91
2021/08/15 10:52:38;;;;;;;5.70;4.88;;;;;;;23.40;67.22;101247.81;4937108;28;101949;-92
2021/08/15 10:55:11;;;;;;;5.30;4.80;;;;;;;23.40;67.28;101252.56;4936321;28;102090;-92
2021/08/15 10:57:46;;;;;;;5.10;4.65;;;;;;;23.40;67.24;101242.28;4948279;28;102737;-92
2021/08/15 11:00:47;;;;;;;5.55;4.97;;;;;;;23.40;67.36;101249.81;4930653;28;102145;-92
2021/08/15 11:03:35;;;;;;;5.63;5.10;;;;;;;23.41;67.35;101259.78;4877970;28;102133;-92
2021/08/15 11:06:02;;;;;;;5.63;5.10;;;;;;;23.41;67.30;101254.22;4934458;28;102187;-92
2021/08/15 11:08:53;;;;;;;5.73;5.10;;;;;;;23.41;67.50;101248.66;4935751;28;103467;-91
2021/08/15 11:11:28;;;;;;;6.05;5.38;;;;;;;23.39;67.39;101256.53;4945052;28;101926;-88
2021/08/15 11:14:28;;;;;;;6.57;5.78;;;;;;;23.39;67.39;101246.22;4953511;28;101796;-89
2021/08/15 11:16:58;;;;;;;5.95;5.45;;;;;;;23.39;67.57;101239.84;4925131;28;101686;-90
2021/08/15 11:19:25;;;;;;;;;;;;;;;23.39;67.75;101234.31;4924620;28;102802;-90
2021/08/15 11:22:04;;;;;;;7.63;5.85;;;;;;;23.38;67.59;101232.69;4939964;28;101986;-90
2021/08/15 11:24:37;;;;;;;6.90;6.20;;;;;;;23.39;67.67;101231.53;4921854;28;101775;-90
2021/08/15 11:27:05;;;;;;;7.10;6.40;;;;;;;23.39;67.74;101239.84;4922538;28;101642;-90